WetterOnline ( https://www.wetteronline.ch )

Wetter aktuell Westerwald (in 500m)

Aktuelles Wetter: Bad Marienberg (555m)

6-stündlich | Neueste Meldungen
Ortszeit Temperatur Wetter
Mi, 05.08. 2:00 15.4° C wolkenlos
Di, 04.08. 20:00 18.8° C wolkenlos
Di, 04.08. 14:00 19.2° C leicht bewölkt
Di, 04.08. 8:00 12.2° C wolkenlos
Di, 04.08. 2:00 13.2° C bedeckt
Mo, 03.08. 20:00 14.8° C leichter Regen
Mo, 03.08. 14:00 19.6° C bewölkt
Mo, 03.08. 8:00 14.3° C wolkig
Ortszeit Temperatur Wetter
Mi, 05.08. 3:30 15.4° C fast wolkenlos
Mi, 05.08. 3:20 15.4° C fast wolkenlos
Mi, 05.08. 3:10 15.4° C leicht bewölkt
Mi, 05.08. 3:00 15.6° C wolkig
Mi, 05.08. 2:50 15.6° C wolkig
Mi, 05.08. 2:40 15.5° C leicht bewölkt
Mi, 05.08. 2:30 15.8° C leicht bewölkt
Mi, 05.08. 2:00 15.4° C wolkenlos
Ortszeit Relative Feuchte Sichtweite
Mi, 05.08. 2:00 50% >70 km
Di, 04.08. 20:00 38% >70 km
Di, 04.08. 14:00 41% 50 km
Di, 04.08. 8:00 80% 30 km
Di, 04.08. 2:00 69% 55 km
Mo, 03.08. 20:00 75% 45 km
Mo, 03.08. 14:00 41% >70 km
Mo, 03.08. 8:00 86% 28 km
Ortszeit Relative Feuchte Sichtweite
Mi, 05.08. 3:30 49% 65 km
Mi, 05.08. 3:20 49% -
Mi, 05.08. 3:10 49% -
Mi, 05.08. 3:00 48% 65 km
Mi, 05.08. 2:50 48% -
Mi, 05.08. 2:40 49% -
Mi, 05.08. 2:30 48% 60 km
Mi, 05.08. 2:00 50% >70 km
Ortszeit Niederschlagsmenge Niederschlagsart
Mi, 05.08. 2:00 0.0 l/m2 in 6 Std. -
Di, 04.08. 20:00 0.0 l/m2 in 12 Std. -
Di, 04.08. 14:00 0.0 l/m2 in 6 Std. -
Di, 04.08. 8:00 0.1 l/m2 in 12 Std. -
Di, 04.08. 2:00 0.1 l/m2 in 6 Std. Regen
Mo, 03.08. 20:00 0.6 l/m2 in 12 Std. Regen
Mo, 03.08. 14:00 0.0 l/m2 in 6 Std. -
Mo, 03.08. 8:00 0.0 l/m2 in 12 Std. -
Ortszeit Niederschlagsmenge Niederschlagsart
Mi, 05.08. 3:30 0.0 l/m2 in 1 Std. -
Mi, 05.08. 3:20 keine Meldung -
Mi, 05.08. 3:10 keine Meldung -
Mi, 05.08. 3:00 0.0 l/m2 in 1 Std. -
Mi, 05.08. 2:50 keine Meldung -
Mi, 05.08. 2:40 keine Meldung -
Mi, 05.08. 2:30 0.0 l/m2 in 1 Std. -
Mi, 05.08. 2:00 0.0 l/m2 in 1 Std. -
Ortszeit Stärke Spitze Richtung
km/h Bft. km/h Grad Sektor
Mi, 05.08. 2:00 6 1 19 50° NO
Di, 04.08. 20:00 7 2 36 320° NW
Di, 04.08. 14:00 11 2 28 320° NW
Di, 04.08. 8:00 13 3 22 360° N
Di, 04.08. 2:00 11 2 14 20° N
Mo, 03.08. 20:00 7 2 26 240° SW
Mo, 03.08. 14:00 6 1 22 250° W
Mo, 03.08. 8:00 6 1 15 40° NO
Ortszeit Stärke Spitze Richtung
km/h Bft. km/h Grad Sektor
Mi, 05.08. 3:30 4 1 4 120° SO
Mi, 05.08. 3:20 4 1 - 120° SO
Mi, 05.08. 3:10 4 1 - 110° O
Mi, 05.08. 3:00 4 1 7 100° O
Mi, 05.08. 2:50 4 1 - 100° O
Mi, 05.08. 2:40 4 1 - 100° O
Mi, 05.08. 2:30 4 1 7 90° O
Mi, 05.08. 2:00 6 1 11 50° NO
Ortszeit Untergrenze Bedeckung Gattung
total tief tief mittel hoch
Mi, 05.08. 2:00 8100 m 0/8 0/8 - - -
Di, 04.08. 20:00 - 0/8 0/8 - - -
Di, 04.08. 14:00 1500 m 3/8 2/8 - - -
Di, 04.08. 8:00 1140 m 0/8 0/8 - - -
Di, 04.08. 2:00 2700 m 8/8 8/8 - - -
Mo, 03.08. 20:00 1500 m 8/8 8/8 - - -
Mo, 03.08. 14:00 1500 m 8/8 4/8 - - -
Mo, 03.08. 8:00 1800 m 6/8 6/8 - - -
Ortszeit Bedeckungsgrad in Achtel und Wolkenuntergrenze
Mi, 05.08. 3:30 1(7500m)
Mi, 05.08. 3:20 1(7500m)
Mi, 05.08. 3:10 3(7500m) 3(8400m)
Mi, 05.08. 3:00 5(7800m) 6(8400m) 7(10500m)
Mi, 05.08. 2:50 5(7800m) 6(8400m) 7(10500m)
Mi, 05.08. 2:40 4(8100m) 6(10500m)
Mi, 05.08. 2:30 1(8100m) 4(10500m) 3(10500m)
Mi, 05.08. 2:00 3(8100m) 3(10500m)
Ortszeit Luftdruck NN (hPa) Tendenz (hPa in 3 Std.)
Mi, 05.08. 2:00 1018 - 0,2
Di, 04.08. 20:00 1016 + 0,2
Di, 04.08. 14:00 1016 + 0,2
Di, 04.08. 8:00 1016 + 1,3
Di, 04.08. 2:00 1014 + 0,8
Mo, 03.08. 20:00 1012 + 0,6
Mo, 03.08. 14:00 1011 - 1,0
Mo, 03.08. 8:00 1014 - 0,1
Ortszeit Luftdruck NN (hPa) Tendenz (hPa in 3 Std.)
Mi, 05.08. 3:30 1018 - 0,2
Mi, 05.08. 3:20 1018 keine Meldung
Mi, 05.08. 3:10 1018 keine Meldung
Mi, 05.08. 3:00 1018 - 0,3
Mi, 05.08. 2:50 1018 keine Meldung
Mi, 05.08. 2:40 1018 keine Meldung
Mi, 05.08. 2:30 1018 - 0,3
Mi, 05.08. 2:00 1018 - 0,2
Ortszeit Schneehöhe (cm)
Mi, 05.08. 2:00 -
Di, 04.08. 20:00 -
Di, 04.08. 14:00 -
Di, 04.08. 8:00 -
Di, 04.08. 2:00 -
Mo, 03.08. 20:00 -
Mo, 03.08. 14:00 -
Mo, 03.08. 8:00 -
Ortszeit Schneehöhe (cm)
Mi, 05.08. 3:30 -
Mi, 05.08. 3:20 -
Mi, 05.08. 3:10 -
Mi, 05.08. 3:00 -
Mi, 05.08. 2:50 -
Mi, 05.08. 2:40 -
Mi, 05.08. 2:30 -
Mi, 05.08. 2:00 -
Link zu dieser Seite / Seite empfehlen

Das Wetter in ...